Padre Bernardo, Brazil
Current Conditions -  °F | °C
As of 10:00 AM on Wednesday 22 Oct 2014 (Local Time) from SBBR Reporting Station
Broken Clouds Broken Clouds  
Wind Chill: 73°   Ceiling: 10000
Heat Index: 73°   Visibility: 6mi
Dew Point: 63°   Wind: 9mph
Humidity: 69%   Direction: 70°ENE
Pressure: 30.15"   Gusts: NA
Location:  15.36°S, 48.51°W
Report Text: SBBR 221200Z 07008KT 9999 FEW020 BKN100 23/17 Q1021
Loading
Personal Weather Stations






























Interactive Weather Map
Tropical Storm Tracking
New forecast layout! Learn more

10-Day Weather Forecast

Advertisements
Track Severe Weather on mobile